createdAt,value
2017-02-21T00:00:07.633Z,83.50
2017-02-21T00:01:08.272Z,83.23
2017-02-21T00:02:07.944Z,83.49
2017-02-21T00:03:07.500Z,84.62
2017-02-21T00:04:08.105Z,84.85
2017-02-21T00:05:07.611Z,85.02
2017-02-21T00:06:08.162Z,84.80
2017-02-21T00:07:07.759Z,84.74
2017-02-21T00:08:08.322Z,85.34
2017-02-21T00:09:08.188Z,85.78
2017-02-21T00:10:07.791Z,86.90
2017-02-21T00:11:08.338Z,86.81
2017-02-21T00:12:07.942Z,86.46
2017-02-21T00:13:07.575Z,87.87
2017-02-21T00:14:08.085Z,88.87
2017-02-21T00:15:07.576Z,88.94
2017-02-21T00:16:08.104Z,88.68
2017-02-21T00:17:07.860Z,88.71
2017-02-21T00:18:08.499Z,87.88
2017-02-21T00:19:08.338Z,87.60
2017-02-21T00:20:07.995Z,87.11
2017-02-21T00:21:07.691Z,86.86
2017-02-21T00:22:08.379Z,87.20
2017-02-21T00:23:07.885Z,87.26
2017-02-21T00:24:08.386Z,86.69
2017-02-21T00:25:07.882Z,86.84
2017-02-21T00:26:08.342Z,86.84
2017-02-21T00:27:08.335Z,86.48
2017-02-21T00:28:07.887Z,86.71
2017-02-21T00:29:09.016Z,86.60
2017-02-21T00:30:07.493Z,86.13
2017-02-21T00:31:08.207Z,85.85
2017-02-21T00:32:07.758Z,86.20
2017-02-21T00:33:08.406Z,86.14
2017-02-21T00:34:07.955Z,85.72
2017-02-21T00:35:07.540Z,85.36
2017-02-21T00:36:08.063Z,85.52
2017-02-21T00:37:07.694Z,85.32
2017-02-21T00:38:08.554Z,85.83
2017-02-21T00:39:08.099Z,85.77
2017-02-21T00:40:08.207Z,85.48
2017-02-21T00:41:07.673Z,85.22
2017-02-21T00:42:08.383Z,85.53
2017-02-21T00:43:07.971Z,85.60
2017-02-21T00:44:07.442Z,85.28
2017-02-21T00:45:08.097Z,85.51
2017-02-21T00:46:07.692Z,85.97
2017-02-21T00:47:08.336Z,85.57
2017-02-21T00:48:07.876Z,85.53
2017-02-21T00:49:08.463Z,85.30
2017-02-21T00:50:08.011Z,85.62
2017-02-21T00:51:07.520Z,85.38
2017-02-21T00:52:08.170Z,85.62
2017-02-21T00:53:07.759Z,85.25
2017-02-21T00:54:08.373Z,84.95
2017-02-21T00:55:07.869Z,84.88
2017-02-21T00:56:08.432Z,85.07
2017-02-21T00:57:08.105Z,84.66
2017-02-21T00:58:07.617Z,84.66
2017-02-21T00:59:07.735Z,85.01
2017-02-21T01:00:08.359Z,85.48
2017-02-21T01:01:07.944Z,85.17
2017-02-21T01:02:07.571Z,84.95
2017-02-21T01:03:08.348Z,85.03
2017-02-21T01:04:08.321Z,84.96
2017-02-21T01:05:07.892Z,85.20
2017-02-21T01:06:08.458Z,86.22
2017-02-21T01:07:08.131Z,86.12
2017-02-21T01:08:08.497Z,86.48
2017-02-21T01:09:07.986Z,86.14
2017-02-21T01:10:08.257Z,86.00
2017-02-21T01:11:08.027Z,86.33
2017-02-21T01:12:07.627Z,86.65
2017-02-21T01:13:08.262Z,86.47
2017-02-21T01:14:08.321Z,86.39
2017-02-21T01:15:08.155Z,86.49
2017-02-21T01:16:08.073Z,86.11
2017-02-21T01:17:07.826Z,86.15
2017-02-21T01:18:08.404Z,86.27
2017-02-21T01:19:07.942Z,86.10
2017-02-21T01:20:07.445Z,85.76
2017-02-21T01:21:07.964Z,85.24
2017-02-21T01:22:07.458Z,85.61
2017-02-21T01:23:07.954Z,85.31
2017-02-21T01:24:08.439Z,84.89
2017-02-21T01:25:08.336Z,84.62
2017-02-21T01:26:07.903Z,84.49
2017-02-21T01:27:07.868Z,84.49
2017-02-21T01:28:08.494Z,84.18
2017-02-21T01:29:08.202Z,84.11
2017-02-21T01:30:08.472Z,84.18
2017-02-21T01:31:08.033Z,84.02
2017-02-21T01:32:07.661Z,83.60
2017-02-21T01:33:08.190Z,83.66
2017-02-21T01:34:07.755Z,83.15
2017-02-21T01:35:07.939Z,83.15
2017-02-21T01:36:07.622Z,83.30
2017-02-21T01:37:07.492Z,83.37
2017-02-21T01:38:08.263Z,83.38
2017-02-21T01:39:07.946Z,82.93
2017-02-21T01:40:07.525Z,82.67
2017-02-21T01:41:08.149Z,82.26
2017-02-21T01:42:07.675Z,82.39
2017-02-21T01:43:08.208Z,82.34
2017-02-21T01:44:07.979Z,82.31
2017-02-21T01:45:07.677Z,82.15
2017-02-21T01:46:07.780Z,82.06
2017-02-21T01:47:08.420Z,81.79
2017-02-21T01:48:08.182Z,81.61
2017-02-21T01:49:08.038Z,81.52
2017-02-21T01:50:07.968Z,81.83
2017-02-21T01:51:07.750Z,81.58
2017-02-21T01:52:08.420Z,82.12
2017-02-21T01:53:07.879Z,81.88
2017-02-21T01:54:07.844Z,81.43
2017-02-21T01:55:08.446Z,81.86
2017-02-21T01:56:07.752Z,82.28
2017-02-21T01:57:08.263Z,82.28
2017-02-21T01:58:08.383Z,81.95
2017-02-21T01:59:08.013Z,82.04
2017-02-21T02:00:07.558Z,82.49
2017-02-21T02:01:08.141Z,83.56
2017-02-21T02:02:07.702Z,84.69
2017-02-21T02:03:08.301Z,85.29
2017-02-21T02:04:08.076Z,85.74
2017-02-21T02:05:07.947Z,86.26
2017-02-21T02:06:07.548Z,86.43
2017-02-21T02:07:08.038Z,87.26
2017-02-21T02:08:07.694Z,88.62
2017-02-21T02:09:08.235Z,89.48
2017-02-21T02:10:07.886Z,89.52
2017-02-21T02:11:08.239Z,89.92
2017-02-21T02:12:07.822Z,89.87
2017-02-21T02:13:08.459Z,90.30
2017-02-21T02:14:27.677Z,91.12
2017-02-21T02:15:08.480Z,91.37
2017-02-21T02:16:07.968Z,91.82
2017-02-21T02:17:07.602Z,91.56
2017-02-21T02:18:08.226Z,91.66
2017-02-21T02:19:08.251Z,91.47
2017-02-21T02:20:07.836Z,92.05
2017-02-21T02:21:08.188Z,91.82
2017-02-21T02:22:08.077Z,91.31
2017-02-21T02:23:07.646Z,91.40
2017-02-21T02:24:07.986Z,91.79
2017-02-21T02:25:07.710Z,91.80
2017-02-21T02:26:08.377Z,92.27
2017-02-21T02:27:08.356Z,92.37
2017-02-21T02:28:07.883Z,92.34
2017-02-21T02:29:08.541Z,92.49
2017-02-21T02:30:26.602Z,92.61
2017-02-21T02:31:08.254Z,92.60
2017-02-21T02:32:07.904Z,94.37
2017-02-21T02:33:08.507Z,94.63
2017-02-21T02:34:08.371Z,93.82
2017-02-21T02:35:08.027Z,94.04
2017-02-21T02:36:07.651Z,94.15
2017-02-21T02:37:08.397Z,94.16
2017-02-21T02:38:07.954Z,94.67
2017-02-21T02:39:07.494Z,94.54
2017-02-21T02:40:08.692Z,93.95
2017-02-21T02:41:08.619Z,94.20
2017-02-21T02:42:08.336Z,94.11
2017-02-21T02:43:08.115Z,93.86
2017-02-21T02:44:07.728Z,93.82
2017-02-21T02:45:08.315Z,94.00
2017-02-21T02:46:07.908Z,93.95
2017-02-21T02:47:08.524Z,93.91
2017-02-21T02:48:08.186Z,93.76
2017-02-21T02:49:08.054Z,93.58
2017-02-21T02:50:07.932Z,93.20
2017-02-21T02:51:07.735Z,92.98
2017-02-21T02:52:08.353Z,92.89
2017-02-21T02:53:07.953Z,92.86
2017-02-21T02:54:07.443Z,93.11
2017-02-21T02:55:07.952Z,92.78
2017-02-21T02:56:07.421Z,92.55
2017-02-21T02:57:08.040Z,92.60
2017-02-21T02:58:07.588Z,91.87
2017-02-21T02:59:08.206Z,92.09
2017-02-21T03:00:08.012Z,91.70
2017-02-21T03:01:07.582Z,91.93
2017-02-21T03:02:32.029Z,91.68
2017-02-21T03:03:07.872Z,91.83
2017-02-21T03:04:08.563Z,91.88
2017-02-21T03:05:08.299Z,92.14
2017-02-21T03:06:07.844Z,92.02
2017-02-21T03:07:08.393Z,91.77
2017-02-21T03:08:07.990Z,91.68
2017-02-21T03:09:07.553Z,91.55
2017-02-21T03:10:08.424Z,91.59
2017-02-21T03:11:08.072Z,91.49
2017-02-21T03:12:07.863Z,91.46
2017-02-21T03:13:08.502Z,91.71
2017-02-21T03:14:08.157Z,91.65
2017-02-21T03:15:07.685Z,91.42
2017-02-21T03:16:08.199Z,90.95
2017-02-21T03:17:07.909Z,90.89
2017-02-21T03:18:07.555Z,90.49
2017-02-21T03:19:08.436Z,90.65
2017-02-21T03:20:07.946Z,90.81
2017-02-21T03:21:07.829Z,90.63
2017-02-21T03:22:08.312Z,91.04
2017-02-21T03:23:08.159Z,90.60
2017-02-21T03:24:07.909Z,90.51
2017-02-21T03:25:07.693Z,90.16
2017-02-21T03:26:08.329Z,90.20
2017-02-21T03:27:07.915Z,90.18
2017-02-21T03:28:07.600Z,89.99
2017-02-21T03:29:08.258Z,89.86
2017-02-21T03:30:07.876Z,89.49
2017-02-21T03:31:08.400Z,89.41
2017-02-21T03:32:07.890Z,89.53
2017-02-21T03:33:08.527Z,89.27
2017-02-21T03:34:08.508Z,89.34
2017-02-21T03:35:08.047Z,89.21
2017-02-21T03:36:07.919Z,89.13
2017-02-21T03:37:07.503Z,89.17
2017-02-21T03:38:08.013Z,88.70
2017-02-21T03:39:07.519Z,88.47
2017-02-21T03:40:08.020Z,88.56
2017-02-21T03:41:07.507Z,88.82
2017-02-21T03:42:08.097Z,88.96
2017-02-21T03:43:07.751Z,88.92
2017-02-21T03:44:09.467Z,88.73
2017-02-21T03:45:08.183Z,88.24
2017-02-21T03:46:07.781Z,88.36
2017-02-21T03:47:08.620Z,88.42
2017-02-21T03:48:08.223Z,88.60
2017-02-21T03:49:07.867Z,88.65
2017-02-21T03:50:08.558Z,88.58
2017-02-21T03:51:08.213Z,88.25
2017-02-21T03:52:07.721Z,87.86
2017-02-21T03:53:08.332Z,87.67
2017-02-21T03:54:07.974Z,87.46
2017-02-21T03:55:07.575Z,87.62
2017-02-21T03:56:08.199Z,87.66
2017-02-21T03:57:07.790Z,87.66
2017-02-21T03:58:08.682Z,87.29
2017-02-21T03:59:08.318Z,87.20
2017-02-21T04:00:07.888Z,87.35
2017-02-21T04:01:08.466Z,87.17
2017-02-21T04:02:08.032Z,87.06
2017-02-21T04:03:07.651Z,87.44
2017-02-21T04:04:08.182Z,87.25
2017-02-21T04:05:07.658Z,87.44
2017-02-21T04:06:08.254Z,87.25
2017-02-21T04:07:07.871Z,87.14
2017-02-21T04:08:08.422Z,86.93
2017-02-21T04:09:07.934Z,86.67
2017-02-21T04:10:07.490Z,86.51
2017-02-21T04:11:08.103Z,86.59
2017-02-21T04:12:07.624Z,86.39
2017-02-21T04:13:08.693Z,86.25
2017-02-21T04:14:08.269Z,86.68
2017-02-21T04:15:07.860Z,86.31
2017-02-21T04:16:08.469Z,86.32
2017-02-21T04:17:08.213Z,86.38
2017-02-21T04:18:07.762Z,86.44
2017-02-21T04:19:08.376Z,86.36
2017-02-21T04:20:07.905Z,86.40
2017-02-21T04:21:08.474Z,86.43
2017-02-21T04:22:07.939Z,86.43
2017-02-21T04:23:38.481Z,86.40
2017-02-21T04:24:07.986Z,86.52
2017-02-21T04:25:07.513Z,86.71
2017-02-21T04:26:08.037Z,86.37
2017-02-21T04:27:07.680Z,86.58
2017-02-21T04:28:08.337Z,86.47
2017-02-21T04:29:07.886Z,86.59
2017-02-21T04:30:08.428Z,86.47
2017-02-21T04:31:08.062Z,86.34
2017-02-21T04:32:07.610Z,86.18
2017-02-21T04:33:08.222Z,86.14
2017-02-21T04:34:07.749Z,86.12
2017-02-21T04:35:08.336Z,85.84
2017-02-21T04:36:08.207Z,85.95
2017-02-21T04:37:07.872Z,85.71
2017-02-21T04:38:08.332Z,85.88
2017-02-21T04:39:08.256Z,85.84
2017-02-21T04:40:08.010Z,85.91
2017-02-21T04:41:08.168Z,85.95
2017-02-21T04:42:07.775Z,85.80
2017-02-21T04:43:08.445Z,85.76
2017-02-21T04:44:08.093Z,85.68
2017-02-21T04:45:07.710Z,85.83
2017-02-21T04:46:08.352Z,86.33
2017-02-21T04:47:07.924Z,86.61
2017-02-21T04:48:07.459Z,86.75
2017-02-21T04:49:07.953Z,87.24
2017-02-21T04:50:07.817Z,88.02
2017-02-21T04:51:08.510Z,87.96
2017-02-21T04:52:08.192Z,87.96
2017-02-21T04:53:08.278Z,88.63
2017-02-21T04:54:07.915Z,88.73
2017-02-21T04:55:08.119Z,89.05
2017-02-21T04:56:07.623Z,88.79
2017-02-21T04:57:08.142Z,88.94
2017-02-21T04:58:07.775Z,88.96
2017-02-21T04:59:08.350Z,88.39
2017-02-21T05:00:08.054Z,88.61
2017-02-21T05:01:07.609Z,88.75
2017-02-21T05:02:08.186Z,89.95
2017-02-21T05:03:08.088Z,90.17
2017-02-21T05:04:07.647Z,89.83
2017-02-21T05:05:08.279Z,89.97
2017-02-21T05:06:07.834Z,90.16
2017-02-21T05:07:08.441Z,89.98
2017-02-21T05:08:08.018Z,90.08
2017-02-21T05:09:07.652Z,90.02
2017-02-21T05:10:08.255Z,90.29
2017-02-21T05:11:07.830Z,90.17
2017-02-21T05:12:08.637Z,89.92
2017-02-21T05:13:08.524Z,89.95
2017-02-21T05:14:08.095Z,89.72
2017-02-21T05:15:07.654Z,90.09
2017-02-21T05:16:08.254Z,89.93
2017-02-21T05:17:07.861Z,90.34
2017-02-21T05:18:08.401Z,90.38
2017-02-21T05:19:08.007Z,90.60
2017-02-21T05:20:07.527Z,90.89
2017-02-21T05:21:08.165Z,90.70
2017-02-21T05:22:07.918Z,90.64
2017-02-21T05:24:07.885Z,90.58
2017-02-21T05:25:11.331Z,90.70
2017-02-21T05:26:08.034Z,91.02
2017-02-21T05:27:07.594Z,91.20
2017-02-21T05:28:08.194Z,90.70
2017-02-21T05:29:07.724Z,90.74
2017-02-21T05:30:08.392Z,90.78
2017-02-21T05:31:07.960Z,90.77
2017-02-21T05:32:07.495Z,90.83
2017-02-21T05:33:08.075Z,90.77
2017-02-21T05:34:07.721Z,90.65
2017-02-21T05:35:08.242Z,90.28
2017-02-21T05:36:08.013Z,90.27
2017-02-21T05:37:07.516Z,90.15
2017-02-21T05:38:08.007Z,90.40
2017-02-21T05:39:07.461Z,90.62
2017-02-21T05:40:07.949Z,90.31
2017-02-21T05:41:07.579Z,90.45
2017-02-21T05:42:08.208Z,90.76
2017-02-21T05:43:08.641Z,91.06
2017-02-21T05:44:08.493Z,90.81
2017-02-21T05:45:08.286Z,90.66
2017-02-21T05:46:08.111Z,90.53
2017-02-21T05:47:07.676Z,90.56
2017-02-21T05:48:08.266Z,90.44
2017-02-21T05:49:07.858Z,90.13
2017-02-21T05:50:08.452Z,90.35
2017-02-21T05:51:08.015Z,90.42
2017-02-21T05:52:07.526Z,90.30
2017-02-21T05:53:08.519Z,90.08
2017-02-21T05:54:08.017Z,90.02
2017-02-21T05:55:08.054Z,90.09
2017-02-21T05:56:07.651Z,90.22
2017-02-21T05:57:08.269Z,90.28
2017-02-21T05:58:07.924Z,90.36
2017-02-21T05:59:08.516Z,90.13
2017-02-21T06:00:08.029Z,90.23
2017-02-21T06:01:07.787Z,90.04
2017-02-21T06:02:08.385Z,90.03
2017-02-21T06:03:07.920Z,90.03
2017-02-21T06:04:08.526Z,89.77
2017-02-21T06:05:08.078Z,89.88
2017-02-21T06:06:07.624Z,89.60
2017-02-21T06:07:08.250Z,89.74
2017-02-21T06:08:07.870Z,89.67
2017-02-21T06:09:08.438Z,89.46
2017-02-21T06:10:07.923Z,89.47
2017-02-21T06:11:07.616Z,89.35
2017-02-21T06:12:08.191Z,89.05
2017-02-21T06:13:07.780Z,88.93
2017-02-21T06:14:08.398Z,88.72
2017-02-21T06:15:07.916Z,88.79
2017-02-21T06:16:08.595Z,88.78
2017-02-21T06:17:08.250Z,88.61
2017-02-21T06:18:08.150Z,88.67
2017-02-21T06:19:07.927Z,88.54
2017-02-21T06:20:08.557Z,88.63
2017-02-21T06:21:08.174Z,88.61
2017-02-21T06:22:07.795Z,88.59
2017-02-21T06:23:08.420Z,88.36
2017-02-21T06:24:07.984Z,88.09
2017-02-21T06:25:07.469Z,88.04
2017-02-21T06:26:07.700Z,87.92
2017-02-21T06:27:08.294Z,87.91
2017-02-21T06:28:07.997Z,87.87
2017-02-21T06:29:07.876Z,87.90
2017-02-21T06:30:08.398Z,87.85
2017-02-21T06:31:08.557Z,87.64
2017-02-21T06:32:08.098Z,87.67
2017-02-21T06:33:07.672Z,87.70
2017-02-21T06:34:08.232Z,87.81
2017-02-21T06:35:07.796Z,87.59
2017-02-21T06:36:08.388Z,87.21
2017-02-21T06:37:07.902Z,87.19
2017-02-21T06:38:08.442Z,87.27
2017-02-21T06:39:07.971Z,87.14
2017-02-21T06:40:07.856Z,87.18
2017-02-21T06:41:08.815Z,87.22
2017-02-21T06:42:08.369Z,87.36
2017-02-21T06:43:07.939Z,87.31
2017-02-21T06:44:08.463Z,87.08
2017-02-21T06:45:08.077Z,86.89
2017-02-21T06:46:07.646Z,87.03
2017-02-21T06:47:08.306Z,87.07
2017-02-21T06:48:08.059Z,87.06
2017-02-21T06:49:07.781Z,87.11
2017-02-21T06:50:08.343Z,86.86
2017-02-21T06:51:07.931Z,86.88
2017-02-21T06:52:08.751Z,86.94
2017-02-21T06:53:08.350Z,86.92
2017-02-21T06:54:08.210Z,86.86
2017-02-21T06:55:07.922Z,86.82
2017-02-21T06:56:08.527Z,86.93
2017-02-21T06:57:08.179Z,87.00
2017-02-21T06:58:07.812Z,87.06
2017-02-21T06:59:08.459Z,87.00
2017-02-21T07:00:08.198Z,86.78
2017-02-21T07:01:07.900Z,86.58
2017-02-21T07:02:08.518Z,86.58
2017-02-21T07:03:08.218Z,86.69
2017-02-21T07:04:07.865Z,86.73
2017-02-21T07:05:08.491Z,86.60
2017-02-21T07:06:08.074Z,86.69
2017-02-21T07:07:07.679Z,86.62
2017-02-21T07:08:08.297Z,86.67
2017-02-21T07:09:07.854Z,86.51
2017-02-21T07:10:08.508Z,86.45
2017-02-21T07:11:08.070Z,86.49
2017-02-21T07:12:07.932Z,86.56
2017-02-21T07:13:08.514Z,86.85
2017-02-21T07:14:08.035Z,86.93
2017-02-21T07:15:07.519Z,87.06
2017-02-21T07:16:08.995Z,86.94
2017-02-21T07:17:07.735Z,87.03
2017-02-21T07:18:08.328Z,87.40
2017-02-21T07:19:07.914Z,87.39
2017-02-21T07:20:08.552Z,87.35
2017-02-21T07:21:08.206Z,87.20
2017-02-21T07:22:07.830Z,87.48
2017-02-21T07:23:09.310Z,87.61
2017-02-21T07:24:07.860Z,88.02
2017-02-21T07:25:08.419Z,88.41
2017-02-21T07:26:07.900Z,88.95
2017-02-21T07:27:08.442Z,88.92
2017-02-21T07:28:08.037Z,89.39
2017-02-21T07:29:07.521Z,89.73
2017-02-21T07:30:08.196Z,90.29
2017-02-21T07:31:07.782Z,90.77
2017-02-21T07:32:08.377Z,91.99
2017-02-21T07:33:08.079Z,91.95
2017-02-21T07:34:07.739Z,91.88
2017-02-21T07:35:08.395Z,92.18
2017-02-21T07:36:07.851Z,92.50
2017-02-21T07:37:07.605Z,92.59
2017-02-21T07:38:08.087Z,93.46
2017-02-21T07:39:07.586Z,93.81
2017-02-21T07:40:08.056Z,93.64
2017-02-21T07:41:08.014Z,93.68
2017-02-21T07:42:07.460Z,93.59
2017-02-21T07:43:08.006Z,94.12
2017-02-21T07:44:07.799Z,94.02
2017-02-21T07:45:08.430Z,93.92
2017-02-21T07:46:08.274Z,94.75
2017-02-21T07:47:07.830Z,95.31
2017-02-21T07:48:08.278Z,94.83
2017-02-21T07:49:08.026Z,94.90
2017-02-21T07:50:07.506Z,95.81
2017-02-21T07:51:08.272Z,95.68
2017-02-21T07:52:07.963Z,97.12
2017-02-21T07:53:07.735Z,96.69
2017-02-21T07:54:08.407Z,96.97
2017-02-21T07:55:08.122Z,98.01
2017-02-21T07:56:07.702Z,97.03
2017-02-21T07:57:08.294Z,98.35
2017-02-21T07:58:07.765Z,98.19
2017-02-21T07:59:13.911Z,98.24
2017-02-21T08:00:08.474Z,97.76
2017-02-21T08:01:08.026Z,97.50
2017-02-21T08:02:07.531Z,98.26
2017-02-21T08:03:08.041Z,98.25
2017-02-21T08:04:07.725Z,98.23
2017-02-21T08:05:08.390Z,98.66
2017-02-21T08:06:08.093Z,98.97
2017-02-21T08:07:07.663Z,98.58
2017-02-21T08:08:08.233Z,98.74
2017-02-21T08:09:07.867Z,100.00
2017-02-21T08:10:08.430Z,99.94
2017-02-21T08:11:08.005Z,99.58
2017-02-21T08:12:07.584Z,100.00
2017-02-21T08:13:08.131Z,99.65
2017-02-21T08:14:07.675Z,99.85
2017-02-21T08:15:08.273Z,99.02
2017-02-21T08:16:07.814Z,99.11
2017-02-21T08:17:08.556Z,98.43
2017-02-21T08:18:08.118Z,98.88
2017-02-21T08:19:07.719Z,99.00
2017-02-21T08:20:08.374Z,99.49
2017-02-21T08:21:07.925Z,99.47
2017-02-21T08:22:07.447Z,98.78
2017-02-21T08:23:08.047Z,99.00
2017-02-21T08:24:07.589Z,98.79
2017-02-21T08:25:08.266Z,98.46
2017-02-21T08:26:07.788Z,98.69
2017-02-21T08:27:08.347Z,98.47
2017-02-21T08:28:08.016Z,98.34
2017-02-21T08:29:07.650Z,98.71
2017-02-21T08:30:08.211Z,97.99
2017-02-21T08:31:08.246Z,97.98
2017-02-21T08:32:07.760Z,98.14
2017-02-21T08:33:08.367Z,98.12
2017-02-21T08:34:07.912Z,98.47
2017-02-21T08:35:08.579Z,98.96
2017-02-21T08:36:08.375Z,99.20
2017-02-21T08:37:08.284Z,98.80
2017-02-21T08:38:07.801Z,98.07
2017-02-21T08:40:08.593Z,98.06
2017-02-21T08:43:08.416Z,97.79
2017-02-21T08:44:08.048Z,97.92
2017-02-21T08:45:07.608Z,98.48
2017-02-21T08:46:08.201Z,98.23
2017-02-21T08:47:07.713Z,98.38
2017-02-21T08:48:08.339Z,98.53
2017-02-21T08:49:08.039Z,98.58
2017-02-21T08:50:07.552Z,98.70
2017-02-21T08:51:08.163Z,98.89
2017-02-21T08:52:07.714Z,98.87
2017-02-21T08:53:08.310Z,99.17
2017-02-21T08:54:07.789Z,100.00
2017-02-21T08:55:08.313Z,99.96
2017-02-21T08:56:08.055Z,100.00
2017-02-21T08:57:07.614Z,100.00
2017-02-21T08:58:26.778Z,99.86
2017-02-21T08:59:08.632Z,99.59
2017-02-21T09:00:09.194Z,99.98
2017-02-21T09:01:07.811Z,99.78
2017-02-21T09:02:08.416Z,99.77
2017-02-21T09:03:07.992Z,99.61
2017-02-21T09:04:07.894Z,100.00
2017-02-21T09:05:08.598Z,99.62
2017-02-21T09:06:08.204Z,99.32
2017-02-21T09:07:07.770Z,99.51
2017-02-21T09:08:08.585Z,99.45
2017-02-21T09:09:08.338Z,99.17
2017-02-21T09:10:08.219Z,98.86
2017-02-21T09:11:07.800Z,98.34
2017-02-21T09:12:08.259Z,98.90
2017-02-21T09:13:08.028Z,99.30
2017-02-21T09:14:07.620Z,98.80
2017-02-21T09:15:08.268Z,98.54
2017-02-21T09:16:07.838Z,98.06
2017-02-21T09:17:08.554Z,98.37
2017-02-21T09:18:08.141Z,98.73
2017-02-21T09:19:07.646Z,98.69
2017-02-21T09:20:08.243Z,98.48
2017-02-21T09:21:08.127Z,98.84
2017-02-21T09:22:07.712Z,98.42
2017-02-21T09:23:08.452Z,98.52
2017-02-21T09:24:08.079Z,98.04
2017-02-21T09:25:07.672Z,98.49
2017-02-21T09:26:08.270Z,97.97
2017-02-21T09:27:07.811Z,98.16
2017-02-21T09:28:08.424Z,98.47
2017-02-21T09:29:07.914Z,97.98
2017-02-21T09:30:08.593Z,97.87
2017-02-21T09:31:08.132Z,96.94
2017-02-21T09:32:07.897Z,97.85
2017-02-21T09:33:08.522Z,97.74
2017-02-21T09:34:08.012Z,98.15
2017-02-21T09:35:07.582Z,98.12
2017-02-21T09:36:08.233Z,97.72
2017-02-21T09:37:07.800Z,98.34
2017-02-21T09:38:08.330Z,98.76
2017-02-21T09:39:07.840Z,98.76
2017-02-21T09:40:08.389Z,98.30
2017-02-21T09:41:07.945Z,97.88
2017-02-21T09:42:07.669Z,98.57
2017-02-21T09:43:08.229Z,98.39
2017-02-21T09:44:08.025Z,97.97
2017-02-21T09:45:07.674Z,98.30
2017-02-21T09:46:08.236Z,98.68
2017-02-21T09:47:07.862Z,99.32
2017-02-21T09:48:08.394Z,98.41
2017-02-21T09:49:07.976Z,98.31
2017-02-21T09:50:07.591Z,98.13
2017-02-21T09:51:08.277Z,97.78
2017-02-21T09:52:07.870Z,98.06
2017-02-21T09:53:08.459Z,97.78
2017-02-21T09:54:08.014Z,97.41
2017-02-21T09:55:07.882Z,97.23
2017-02-21T09:56:08.508Z,97.04
2017-02-21T09:57:08.090Z,96.84
2017-02-21T09:58:07.617Z,97.21
2017-02-21T09:59:08.316Z,96.48
2017-02-21T10:00:07.831Z,95.71
2017-02-21T10:01:08.469Z,95.91
2017-02-21T10:02:08.083Z,95.31
2017-02-21T10:03:07.608Z,95.48
2017-02-21T10:04:08.519Z,95.26
2017-02-21T10:05:08.318Z,95.55
2017-02-21T10:06:08.135Z,97.66
2017-02-21T10:07:07.936Z,97.80
2017-02-21T10:08:07.472Z,97.55
2017-02-21T10:09:07.984Z,97.46
2017-02-21T10:10:08.418Z,97.25
2017-02-21T10:11:08.010Z,97.53
2017-02-21T10:12:07.537Z,97.41
2017-02-21T10:13:08.118Z,96.56
2017-02-21T10:14:07.685Z,96.92
2017-02-21T10:15:08.226Z,97.13
2017-02-21T10:16:08.097Z,97.31
2017-02-21T10:17:07.978Z,96.93
2017-02-21T10:18:07.623Z,96.58
2017-02-21T10:19:08.257Z,97.05
2017-02-21T10:20:07.816Z,97.00
2017-02-21T10:21:08.459Z,96.66
2017-02-21T10:22:08.069Z,100.00
2017-02-21T10:23:07.537Z,99.01
2017-02-21T10:24:07.921Z,97.81
2017-02-21T10:25:07.711Z,98.50
2017-02-21T10:26:08.343Z,97.45
2017-02-21T10:27:08.401Z,98.04
2017-02-21T10:28:08.105Z,98.07
2017-02-21T10:29:07.561Z,98.07
2017-02-21T10:30:08.107Z,98.22
2017-02-21T10:31:07.659Z,97.84
2017-02-21T10:32:08.271Z,97.46
2017-02-21T10:33:07.876Z,98.05
2017-02-21T10:34:08.487Z,97.45
2017-02-21T10:35:07.977Z,97.42
2017-02-21T10:36:07.503Z,96.99
2017-02-21T10:37:08.154Z,96.82
2017-02-21T10:38:07.915Z,97.05
2017-02-21T10:39:07.532Z,97.13
2017-02-21T10:40:08.037Z,97.55
2017-02-21T10:41:07.550Z,96.97
2017-02-21T10:42:08.176Z,96.90
2017-02-21T10:43:07.692Z,96.71
2017-02-21T10:44:08.236Z,97.65
2017-02-21T10:45:07.796Z,97.93
2017-02-21T10:46:28.822Z,96.20
2017-02-21T10:47:08.525Z,95.56
2017-02-21T10:48:40.658Z,94.64
2017-02-21T10:49:08.283Z,94.31
2017-02-21T10:50:07.850Z,95.62
2017-02-21T10:51:08.518Z,96.89
2017-02-21T10:52:08.136Z,97.17
2017-02-21T10:53:07.672Z,96.21
2017-02-21T10:54:08.202Z,96.98
2017-02-21T10:55:07.794Z,97.05
2017-02-21T10:56:08.417Z,97.12
2017-02-21T10:57:07.940Z,96.90
2017-02-21T10:58:07.802Z,97.08
2017-02-21T10:59:08.306Z,97.02
2017-02-21T11:00:08.085Z,97.28
2017-02-21T11:01:07.642Z,96.66
2017-02-21T11:02:08.269Z,96.97
2017-02-21T11:03:07.931Z,96.73
2017-02-21T11:04:07.419Z,97.39
2017-02-21T11:05:08.255Z,97.38
2017-02-21T11:06:07.854Z,97.08
2017-02-21T11:07:08.398Z,97.29
2017-02-21T11:08:08.024Z,97.28
2017-02-21T11:09:07.794Z,97.95
2017-02-21T11:10:08.835Z,98.34
2017-02-21T11:11:08.524Z,98.74
2017-02-21T11:12:08.074Z,98.50
2017-02-21T11:13:07.601Z,98.35
2017-02-21T11:14:08.114Z,98.27
2017-02-21T11:15:07.686Z,98.48
2017-02-21T11:16:08.281Z,98.93
2017-02-21T11:17:08.073Z,98.59
2017-02-21T11:18:07.609Z,98.67
2017-02-21T11:19:08.161Z,98.72
2017-02-21T11:20:07.742Z,98.18
2017-02-21T11:21:08.402Z,97.52
2017-02-21T11:22:08.199Z,97.96
2017-02-21T11:23:07.832Z,97.98
2017-02-21T11:24:08.383Z,97.86
2017-02-21T11:25:07.897Z,98.08
2017-02-21T11:26:08.593Z,98.26
2017-02-21T11:27:08.088Z,98.04
2017-02-21T11:28:07.764Z,97.53
2017-02-21T11:29:08.327Z,97.55
2017-02-21T11:30:07.966Z,97.89
2017-02-21T11:31:07.743Z,97.29
2017-02-21T11:32:08.345Z,97.69
2017-02-21T11:33:07.928Z,97.09
2017-02-21T11:34:07.445Z,98.26
2017-02-21T11:35:07.963Z,97.48
2017-02-21T11:36:07.514Z,97.45
2017-02-21T11:37:08.138Z,97.15
2017-02-21T11:38:08.653Z,97.04
2017-02-21T11:39:08.451Z,97.18
2017-02-21T11:40:08.056Z,97.53
2017-02-21T11:41:07.610Z,97.51
2017-02-21T11:42:08.174Z,98.43
2017-02-21T11:43:07.675Z,97.21
2017-02-21T11:44:08.156Z,98.14
2017-02-21T11:45:07.666Z,99.25
2017-02-21T11:46:08.315Z,98.62
2017-02-21T11:47:07.843Z,98.23
2017-02-21T11:48:09.287Z,98.37
2017-02-21T11:49:07.979Z,97.43
2017-02-21T11:50:07.671Z,97.41
2017-02-21T11:51:08.274Z,97.62
2017-02-21T11:52:40.510Z,97.47
2017-02-21T11:53:59.077Z,97.30
2017-02-21T11:54:07.757Z,97.17
2017-02-21T11:55:08.363Z,96.53
2017-02-21T11:56:07.896Z,96.59
2017-02-21T11:57:08.845Z,96.58
2017-02-21T11:58:08.595Z,96.91
2017-02-21T11:59:08.236Z,96.48
2017-02-21T12:00:07.898Z,96.20
2017-02-21T12:01:08.434Z,95.71
2017-02-21T12:02:08.024Z,95.97
2017-02-21T12:03:07.536Z,96.02
2017-02-21T12:04:08.208Z,95.83
2017-02-21T12:05:07.806Z,95.56
2017-02-21T12:06:08.338Z,95.32
2017-02-21T12:07:07.845Z,95.93
2017-02-21T12:08:08.455Z,96.06
2017-02-21T12:09:07.951Z,95.60
2017-02-21T12:10:07.490Z,95.49
2017-02-21T12:11:08.007Z,95.15
2017-02-21T12:12:07.776Z,95.62
2017-02-21T12:13:08.338Z,95.55
2017-02-21T12:14:08.173Z,96.23
2017-02-21T12:15:07.717Z,95.81
2017-02-21T12:16:08.579Z,96.24
2017-02-21T12:17:08.247Z,95.88
2017-02-21T12:18:07.827Z,95.67
2017-02-21T12:19:08.377Z,95.45
2017-02-21T12:20:07.941Z,95.46
2017-02-21T12:21:07.451Z,95.43
2017-02-21T12:22:08.055Z,95.86
2017-02-21T12:23:07.748Z,95.54
2017-02-21T12:24:08.324Z,96.05
2017-02-21T12:25:07.862Z,95.98
2017-02-21T12:26:08.468Z,96.15
2017-02-21T12:27:07.960Z,95.96
2017-02-21T12:28:07.474Z,96.50
2017-02-21T12:29:08.088Z,96.99
2017-02-21T12:30:07.656Z,96.11
2017-02-21T12:31:08.238Z,96.45
2017-02-21T12:32:07.808Z,96.49
2017-02-21T12:33:08.395Z,96.65
2017-02-21T12:34:08.219Z,96.55
2017-02-21T12:35:08.146Z,96.84
2017-02-21T12:36:08.038Z,96.96
2017-02-21T12:37:07.527Z,96.78
2017-02-21T12:38:08.113Z,97.34
2017-02-21T12:39:07.785Z,97.29
2017-02-21T12:40:08.311Z,97.58
2017-02-21T12:41:07.851Z,98.06
2017-02-21T12:42:08.432Z,98.40
2017-02-21T12:43:08.011Z,98.37
2017-02-21T12:44:07.618Z,97.93
2017-02-21T12:45:08.334Z,97.61
2017-02-21T12:46:08.146Z,97.10
2017-02-21T12:47:07.845Z,96.93
2017-02-21T12:48:08.487Z,97.11
2017-02-21T12:49:08.049Z,96.98
2017-02-21T12:50:07.506Z,97.07
2017-02-21T12:51:08.127Z,96.50
2017-02-21T12:52:07.766Z,96.66
2017-02-21T12:53:08.340Z,97.20
2017-02-21T12:54:07.919Z,97.32
2017-02-21T12:55:07.708Z,97.16
2017-02-21T12:56:08.559Z,96.60